weather.gov     
National Weather Service

Terminal Aerodrome Forecast
NWS Homepage
This page is being discontinued on March 12, 2014.
The same data is available at this site. Please update your bookmarks.
Thank you, and we apologize for the inconvenience.
Please send an email to SR-SRH.Webmaster@noaa.gov with any concerns.


Current Version
Previous Version:    01  02  03  04  05  06  07  08  09  10  11  12  13  14  15  16  17  18  19  20  21  22  23  24  25  26  27  28  29  30  
   31  32  33  34  35  36  37  38  39  40  41  42  43  44  45  46  47  48  49  
[Printable]
513
FTUS46 KSEW 222300 RRA
TAFSEA
TAF
KSEA 222350Z 2300/2406 15007KT P6SM -RA FEW015 SCT030 OVC050
      TEMPO 2300/2302 5SM -RA BR FEW015 BKN030 OVC050
     FM230200 15007KT 5SM -RA BR BKN015 OVC030
     FM230600 19011KT P6SM -SHRA SCT015 BKN030 OVC050
     FM232100 21011KT P6SM -SHRA SCT030 BKN050 BKN090 PROB30
      2321/2402 5SM TSRA OVC025CB
     FM240200 19008KT P6SM SCT035 SCT050 BKN090 PROB30 2402/2406
      -SHRA=


U.S. Dept. of Commerce
NOAA National Weather Service
1325 East West Highway
Silver Spring, MD 20910
E-mail: w-nws.webmaster@noaa.gov
Page last modified: May 16, 2007
NATIONAL WEATHER SERVICE: for Safety, for Work, for Fun - FOR LIFE